createdAt,value
2018-01-25T00:00:23.356Z,23.77
2018-01-25T00:02:50.884Z,12.10
2018-01-25T00:05:19.210Z,14.10
2018-01-25T00:07:46.729Z,10.97
2018-01-25T00:10:15.014Z,9.90
2018-01-25T00:12:43.330Z,10.33
2018-01-25T00:15:10.854Z,9.07
2018-01-25T00:17:38.399Z,9.40
2018-01-25T00:20:06.687Z,9.63
2018-01-25T00:22:34.233Z,11.60
2018-01-25T00:25:02.539Z,11.73
2018-01-25T00:27:30.091Z,7.77
2018-01-25T00:29:57.628Z,12.53
2018-01-25T00:32:25.943Z,9.57
2018-01-25T00:34:53.476Z,10.77
2018-01-25T00:37:21.798Z,11.80
2018-01-25T00:39:49.318Z,9.30
2018-01-25T00:42:17.637Z,10.23
2018-01-25T00:44:45.166Z,12.90
2018-01-25T00:47:12.724Z,11.77
2018-01-25T00:49:40.250Z,11.60
2018-01-25T00:52:07.798Z,15.60
2018-01-25T00:54:35.331Z,9.77
2018-01-25T00:57:02.874Z,8.20
2018-01-25T00:59:30.401Z,13.53
2018-01-25T01:01:58.721Z,7.40
2018-01-25T01:04:26.242Z,8.40
2018-01-25T01:06:54.557Z,9.20
2018-01-25T01:09:22.085Z,9.93
2018-01-25T01:11:50.402Z,7.57
2018-01-25T01:14:17.925Z,10.07
2018-01-25T01:16:46.242Z,10.37
2018-01-25T01:19:14.530Z,8.40
2018-01-25T01:21:42.082Z,10.33
2018-01-25T01:24:09.606Z,7.73
2018-01-25T01:26:44.002Z,6.67
2018-01-25T01:29:12.295Z,6.33
2018-01-25T01:31:39.842Z,6.97
2018-01-25T01:34:08.135Z,7.73
2018-01-25T01:36:35.674Z,7.67
2018-01-25T01:39:03.966Z,7.20
2018-01-25T01:41:32.277Z,7.90
2018-01-25T01:43:59.797Z,6.97
2018-01-25T01:46:28.107Z,11.90
2018-01-25T01:48:55.634Z,11.33
2018-01-25T01:51:23.990Z,6.63
2018-01-25T01:53:51.511Z,9.03
2018-01-25T01:56:19.049Z,5.73
2018-01-25T01:58:46.570Z,8.10
2018-01-25T02:01:14.119Z,8.10
2018-01-25T02:03:41.642Z,8.10
2018-01-25T02:06:09.185Z,7.43
2018-01-25T02:08:36.762Z,7.60
2018-01-25T02:11:04.302Z,6.47
2018-01-25T02:13:31.887Z,7.77
2018-01-25T02:16:00.153Z,7.07
2018-01-25T02:18:27.677Z,6.83
2018-01-25T02:20:55.969Z,8.20
2018-01-25T02:23:23.520Z,6.80
2018-01-25T02:25:51.906Z,9.07
2018-01-25T02:28:20.226Z,10.63
2018-01-25T02:30:47.748Z,6.70
2018-01-25T02:33:15.294Z,7.27
2018-01-25T02:35:43.583Z,6.70
2018-01-25T02:38:11.163Z,7.53
2018-01-25T02:40:38.714Z,6.27
2018-01-25T02:43:06.278Z,9.10
2018-01-25T02:45:33.834Z,10.20
2018-01-25T02:48:01.380Z,7.23
2018-01-25T02:50:29.680Z,8.73
2018-01-25T02:52:57.227Z,7.10
2018-01-25T02:55:24.750Z,8.63
2018-01-25T02:57:52.294Z,7.13
2018-01-25T03:00:19.820Z,7.63
2018-01-25T03:02:47.366Z,7.43
2018-01-25T03:05:14.894Z,7.73
2018-01-25T03:07:43.201Z,6.63
2018-01-25T03:10:10.722Z,7.80
2018-01-25T03:12:38.266Z,9.90
2018-01-25T03:15:05.798Z,11.80
2018-01-25T03:17:33.343Z,8.73
2018-01-25T03:20:00.870Z,7.77
2018-01-25T03:22:29.194Z,6.70
2018-01-25T03:24:57.022Z,9.33
2018-01-25T03:27:25.338Z,8.80
2018-01-25T03:29:52.858Z,7.53
2018-01-25T03:32:21.174Z,8.00
2018-01-25T03:34:48.706Z,10.00
2018-01-25T03:37:17.014Z,7.57
2018-01-25T03:39:44.548Z,7.23
2018-01-25T03:42:12.097Z,10.67
2018-01-25T03:44:40.385Z,9.07
2018-01-25T03:47:07.929Z,8.60
2018-01-25T03:49:36.217Z,6.80
2018-01-25T03:52:03.771Z,7.43
2018-01-25T03:54:32.060Z,6.47
2018-01-25T03:56:59.609Z,8.70
2018-01-25T03:59:27.962Z,10.03
2018-01-25T04:01:55.513Z,8.90
2018-01-25T04:04:23.038Z,8.13
2018-01-25T04:06:50.814Z,8.17
2018-01-25T04:09:18.338Z,10.30
2018-01-25T04:11:45.902Z,5.63
2018-01-25T04:14:13.426Z,7.80
2018-01-25T04:16:41.002Z,9.73
2018-01-25T04:19:09.294Z,12.37
2018-01-25T04:21:36.847Z,9.93
2018-01-25T04:24:05.138Z,10.87
2018-01-25T04:26:32.689Z,7.80
2018-01-25T04:29:00.978Z,11.33
2018-01-25T04:31:28.526Z,8.37
2018-01-25T04:33:56.142Z,7.10
2018-01-25T04:36:23.666Z,10.10
2018-01-25T04:38:51.214Z,9.00
2018-01-25T04:41:18.734Z,6.63
2018-01-25T04:43:46.281Z,8.73
2018-01-25T04:46:13.798Z,8.00
2018-01-25T04:48:41.345Z,11.63
2018-01-25T04:51:08.875Z,10.33
2018-01-25T04:53:36.422Z,9.13
2018-01-25T04:56:03.945Z,7.10
2018-01-25T04:58:31.485Z,8.47
2018-01-25T05:00:59.003Z,6.20
2018-01-25T05:03:26.546Z,8.67
2018-01-25T05:05:54.073Z,8.80
2018-01-25T05:08:21.623Z,6.80
2018-01-25T05:10:49.150Z,6.83
2018-01-25T05:13:16.701Z,9.23
2018-01-25T05:15:44.225Z,9.33
2018-01-25T05:18:11.774Z,15.70
2018-01-25T05:20:39.294Z,8.83
2018-01-25T05:23:08.409Z,6.00
2018-01-25T05:25:36.698Z,7.10
2018-01-25T05:28:04.249Z,10.57
2018-01-25T05:30:31.774Z,9.50
2018-01-25T05:32:59.342Z,11.13
2018-01-25T05:35:26.866Z,11.23
2018-01-25T05:37:54.414Z,8.33
2018-01-25T05:40:21.938Z,9.80
2018-01-25T05:42:50.253Z,10.23
2018-01-25T05:45:17.779Z,9.03
2018-01-25T05:47:45.335Z,10.10
2018-01-25T05:50:13.618Z,8.73
2018-01-25T05:52:41.173Z,7.00
2018-01-25T05:55:08.710Z,9.80
2018-01-25T05:57:36.263Z,9.20
2018-01-25T06:00:03.816Z,11.37
2018-01-25T06:02:31.365Z,9.10
2018-01-25T06:04:58.889Z,10.60
2018-01-25T06:07:26.437Z,11.40
2018-01-25T06:09:53.966Z,9.70
2018-01-25T06:12:21.542Z,14.50
2018-01-25T06:14:49.094Z,12.93
2018-01-25T06:17:16.654Z,9.17
2018-01-25T06:19:44.217Z,12.63
2018-01-25T06:22:12.513Z,13.13
2018-01-25T06:24:40.059Z,8.83
2018-01-25T06:27:08.355Z,9.47
2018-01-25T06:29:35.909Z,10.70
2018-01-25T06:52:08.246Z,11.47
2018-01-25T06:54:35.803Z,15.10
2018-01-25T06:57:03.342Z,14.50
2018-01-25T06:59:30.900Z,14.13
2018-01-25T07:01:58.438Z,14.77
2018-01-25T07:04:26.770Z,15.30
2018-01-25T07:06:54.307Z,15.43
2018-01-25T07:09:21.873Z,17.43
2018-01-25T07:11:49.404Z,15.70
2018-01-25T07:14:17.730Z,23.70
2018-01-25T07:16:45.288Z,18.53
2018-01-25T07:19:12.838Z,15.93
2018-01-25T07:21:40.361Z,17.93
2018-01-25T07:24:08.678Z,15.93
2018-01-25T07:26:36.214Z,16.53
2018-01-25T07:29:03.771Z,21.80
2018-01-25T07:31:31.299Z,18.30
2018-01-25T07:33:58.857Z,17.47
2018-01-25T07:36:26.389Z,17.20
2018-01-25T07:38:53.951Z,14.90
2018-01-25T07:41:21.482Z,18.13
2018-01-25T07:43:49.030Z,15.30
2018-01-25T07:46:16.563Z,20.40
2018-01-25T07:48:44.121Z,20.40
2018-01-25T07:51:11.656Z,13.67
2018-01-25T07:53:39.218Z,14.70
2018-01-25T07:56:06.762Z,18.23
2018-01-25T07:58:34.314Z,18.87
2018-01-25T08:01:01.834Z,16.53
2018-01-25T08:03:30.158Z,17.10
2018-01-25T08:05:57.681Z,17.53
2018-01-25T08:08:25.229Z,13.60
2018-01-25T08:10:53.521Z,16.20
2018-01-25T08:16:22.025Z,17.10
2018-01-25T08:18:49.579Z,17.13
2018-01-25T08:21:17.112Z,14.80
2018-01-25T08:23:44.670Z,13.70
2018-01-25T08:26:12.192Z,17.40
2018-01-25T08:28:39.743Z,13.80
2018-01-25T08:31:07.276Z,16.43
2018-01-25T08:33:34.831Z,13.03
2018-01-25T08:36:03.126Z,16.10
2018-01-25T08:38:30.696Z,16.00
2018-01-25T08:40:58.226Z,13.50
2018-01-25T08:43:26.549Z,14.10
2018-01-25T08:45:54.077Z,12.23
2018-01-25T08:48:21.629Z,16.63
2018-01-25T08:50:49.157Z,15.40
2018-01-25T08:53:16.710Z,17.90
2018-01-25T08:55:44.242Z,17.03
2018-01-25T08:58:11.797Z,12.57
2018-01-25T09:00:39.359Z,16.70
2018-01-25T09:03:06.951Z,15.83
2018-01-25T09:05:34.473Z,16.43
2018-01-25T09:08:02.037Z,20.67
2018-01-25T09:10:29.565Z,13.80
2018-01-25T09:12:57.123Z,17.37
2018-01-25T09:15:25.418Z,18.90
2018-01-25T09:17:52.974Z,15.23
2018-01-25T09:20:20.501Z,14.63
2018-01-25T09:22:48.834Z,14.60
2018-01-25T09:25:16.366Z,17.83
2018-01-25T09:27:43.921Z,13.27
2018-01-25T09:30:11.453Z,12.77
2018-01-25T09:32:39.010Z,15.33
2018-01-25T09:35:06.535Z,13.90
2018-01-25T09:37:34.081Z,15.10
2018-01-25T09:40:01.611Z,14.73
2018-01-25T09:42:29.934Z,17.60
2018-01-25T09:44:57.453Z,15.30
2018-01-25T09:47:25.014Z,15.37
2018-01-25T09:49:52.546Z,12.80
2018-01-25T09:52:20.078Z,17.50
2018-01-25T09:54:47.629Z,18.40
2018-01-25T09:57:15.145Z,18.53
2018-01-25T09:59:43.495Z,13.60
2018-01-25T10:02:11.017Z,16.70
2018-01-25T10:04:38.566Z,15.63
2018-01-25T10:07:06.111Z,16.17
2018-01-25T10:09:33.665Z,12.53
2018-01-25T10:12:01.201Z,19.33
2018-01-25T10:14:28.897Z,22.40
2018-01-25T10:16:56.430Z,16.77
2018-01-25T10:19:24.745Z,20.20
2018-01-25T10:21:52.281Z,22.33
2018-01-25T10:24:20.598Z,21.03
2018-01-25T10:26:48.126Z,22.07
2018-01-25T10:29:15.682Z,20.13
2018-01-25T10:31:43.218Z,17.27
2018-01-25T10:34:10.799Z,20.23
2018-01-25T10:36:38.334Z,26.97
2018-01-25T10:39:05.880Z,19.47
2018-01-25T10:41:33.460Z,27.80
2018-01-25T10:44:00.985Z,21.87
2018-01-25T10:46:28.505Z,21.40
2018-01-25T10:48:56.053Z,21.90
2018-01-25T10:51:24.341Z,19.30
2018-01-25T10:53:51.893Z,21.33
2018-01-25T10:56:19.429Z,18.67
2018-01-25T10:58:46.982Z,21.80
2018-01-25T11:01:20.249Z,28.43
2018-01-25T11:03:47.793Z,21.07
2018-01-25T11:06:15.329Z,23.80
2018-01-25T11:08:42.877Z,26.00
2018-01-25T11:11:11.176Z,19.57
2018-01-25T11:13:38.726Z,29.70
2018-01-25T11:16:06.261Z,23.40
2018-01-25T11:18:33.820Z,22.50
2018-01-25T11:21:02.122Z,23.30
2018-01-25T11:23:29.683Z,25.40
2018-01-25T11:25:57.214Z,25.70
2018-01-25T11:28:24.737Z,20.13
2018-01-25T11:30:52.290Z,19.83
2018-01-25T11:33:19.817Z,19.93
2018-01-25T11:35:48.133Z,20.00
2018-01-25T11:38:15.667Z,22.93
2018-01-25T11:40:43.218Z,22.40
2018-01-25T11:43:10.751Z,20.50
2018-01-25T11:45:39.101Z,21.30
2018-01-25T11:48:06.625Z,28.73
2018-01-25T11:50:34.182Z,18.47
2018-01-25T11:53:01.706Z,20.80
2018-01-25T11:55:29.267Z,24.63
2018-01-25T11:57:56.790Z,16.77
2018-01-25T12:00:24.346Z,19.73
2018-01-25T12:02:51.869Z,20.77
2018-01-25T12:05:19.425Z,20.30
2018-01-25T12:07:47.718Z,24.00
2018-01-25T12:10:15.274Z,20.13
2018-01-25T12:12:42.805Z,25.20
2018-01-25T12:15:10.362Z,26.00
2018-01-25T12:17:37.889Z,18.77
2018-01-25T12:20:05.499Z,19.77
2018-01-25T12:22:32.994Z,19.90
2018-01-25T12:25:00.548Z,20.37
2018-01-25T12:27:28.075Z,21.80
2018-01-25T12:29:56.401Z,20.33
2018-01-25T12:32:24.054Z,21.10
2018-01-25T12:34:51.610Z,34.90
2018-01-25T12:37:19.130Z,19.53
2018-01-25T12:39:47.450Z,25.93
2018-01-25T12:42:14.988Z,22.97
2018-01-25T12:44:42.547Z,22.50
2018-01-25T12:47:10.087Z,21.27
2018-01-25T12:49:38.418Z,24.07
2018-01-25T12:52:06.717Z,23.20
2018-01-25T12:54:34.277Z,27.53
2018-01-25T12:57:01.817Z,22.63
2018-01-25T12:59:29.378Z,22.10
2018-01-25T13:01:56.906Z,21.10
2018-01-25T13:04:24.460Z,22.30
2018-01-25T13:06:51.989Z,21.63
2018-01-25T13:09:19.546Z,24.40
2018-01-25T13:11:47.083Z,16.77
2018-01-25T13:14:14.634Z,29.80
2018-01-25T13:16:42.157Z,27.53
2018-01-25T13:19:09.757Z,23.90
2018-01-25T13:21:37.254Z,26.50
2018-01-25T13:24:05.577Z,22.97
2018-01-25T13:26:33.104Z,18.63
2018-01-25T13:29:00.653Z,25.63
2018-01-25T13:31:28.951Z,26.70
2018-01-25T13:33:56.510Z,19.63
2018-01-25T13:36:24.042Z,26.13
2018-01-25T13:38:52.346Z,18.93
2018-01-25T13:41:19.902Z,26.30
2018-01-25T13:43:47.439Z,20.77
2018-01-25T13:46:15.749Z,25.10
2018-01-25T13:48:43.279Z,29.03
2018-01-25T13:51:11.605Z,26.50
2018-01-25T13:53:39.137Z,26.00
2018-01-25T13:56:06.703Z,22.30
2018-01-25T13:58:34.230Z,27.87
2018-01-25T14:01:02.554Z,24.40
2018-01-25T14:03:30.087Z,29.27
2018-01-25T14:05:57.645Z,22.50
2018-01-25T14:08:25.941Z,20.17
2018-01-25T14:10:53.499Z,20.30
2018-01-25T14:13:21.031Z,19.60
2018-01-25T14:15:49.350Z,26.47
2018-01-25T14:18:16.881Z,23.57
2018-01-25T14:20:44.435Z,23.63
2018-01-25T14:23:12.731Z,27.53
2018-01-25T14:25:40.285Z,30.27
2018-01-25T14:28:07.822Z,25.90
2018-01-25T14:30:36.142Z,30.03
2018-01-25T14:33:03.673Z,25.40
2018-01-25T14:35:31.990Z,26.37
2018-01-25T14:37:59.517Z,31.77
2018-01-25T14:40:27.085Z,25.00
2018-01-25T14:42:54.674Z,24.20
2018-01-25T14:45:22.229Z,25.17
2018-01-25T14:47:49.753Z,35.37
2018-01-25T14:50:17.308Z,25.73
2018-01-25T14:52:45.615Z,25.60
2018-01-25T14:55:13.169Z,26.33
2018-01-25T14:57:40.701Z,28.03
2018-01-25T15:00:09.027Z,29.03
2018-01-25T15:02:36.553Z,23.77
2018-01-25T15:05:04.103Z,32.63
2018-01-25T15:07:32.395Z,31.87
2018-01-25T15:09:59.949Z,28.33
2018-01-25T15:12:27.510Z,29.67
2018-01-25T15:14:55.066Z,23.27
2018-01-25T15:17:22.593Z,27.73
2018-01-25T15:19:50.145Z,26.57
2018-01-25T15:22:18.156Z,31.63
2018-01-25T15:24:45.242Z,30.57
2018-01-25T15:27:18.583Z,30.50
2018-01-25T15:29:46.906Z,24.70
2018-01-25T15:32:14.434Z,26.60
2018-01-25T15:34:41.982Z,24.93
2018-01-25T15:37:10.281Z,19.57
2018-01-25T15:39:37.838Z,20.33
2018-01-25T15:42:05.370Z,19.63
2018-01-25T15:44:33.690Z,21.93
2018-01-25T15:47:01.217Z,45.83
2018-01-25T15:49:29.544Z,127.67
2018-01-25T15:51:57.845Z,105.63
2018-01-25T15:54:25.405Z,61.23
2018-01-25T15:56:52.938Z,51.90
2018-01-25T15:59:20.470Z,31.73
2018-01-25T16:01:48.031Z,23.73
2018-01-25T16:04:15.557Z,16.50
2018-01-25T16:06:43.113Z,20.67
2018-01-25T16:09:10.642Z,23.80
2018-01-25T16:11:38.197Z,23.30
2018-01-25T16:14:05.727Z,14.70
2018-01-25T16:16:33.277Z,21.07
2018-01-25T16:19:01.565Z,23.97
2018-01-25T16:21:29.124Z,17.63
2018-01-25T16:23:56.658Z,18.00
2018-01-25T16:26:24.981Z,19.03
2018-01-25T16:28:52.519Z,22.77
2018-01-25T16:31:20.070Z,19.43
2018-01-25T16:33:48.363Z,19.53
2018-01-25T16:36:15.921Z,18.87
2018-01-25T16:38:43.446Z,19.27
2018-01-25T16:41:11.769Z,25.33
2018-01-25T16:43:39.298Z,22.07
2018-01-25T16:46:06.849Z,27.77
2018-01-25T16:48:35.150Z,34.47
2018-01-25T16:51:02.697Z,28.20
2018-01-25T16:53:30.994Z,34.20
2018-01-25T16:55:58.549Z,34.40
2018-01-25T16:58:26.075Z,32.90
2018-01-25T17:00:54.394Z,29.10
2018-01-25T17:03:21.946Z,29.87
2018-01-25T17:05:49.503Z,20.20
2018-01-25T17:08:17.027Z,20.73
2018-01-25T17:10:45.429Z,18.83
2018-01-25T17:13:12.966Z,17.27
2018-01-25T17:15:40.525Z,24.00
2018-01-25T17:18:08.105Z,17.30
2018-01-25T17:20:36.418Z,17.80
2018-01-25T17:23:03.946Z,16.20
2018-01-25T17:25:32.254Z,9.63
2018-01-25T17:27:59.782Z,7.97
2018-01-25T17:30:27.329Z,7.70
2018-01-25T17:32:55.620Z,9.33
2018-01-25T17:35:23.927Z,6.50
2018-01-25T17:37:51.446Z,8.00
2018-01-25T17:40:19.761Z,8.17
2018-01-25T17:42:47.282Z,6.17
2018-01-25T17:45:15.611Z,6.13
2018-01-25T17:47:43.134Z,5.20
2018-01-25T17:50:10.681Z,5.30
2018-01-25T17:52:38.970Z,8.00
2018-01-25T17:55:06.530Z,6.50
2018-01-25T17:57:34.057Z,5.23
2018-01-25T18:00:01.618Z,5.53
2018-01-25T18:02:29.142Z,6.77
2018-01-25T18:04:56.665Z,4.87
2018-01-25T18:07:24.982Z,8.40
2018-01-25T18:09:52.510Z,9.10
2018-01-25T18:12:20.060Z,6.20
2018-01-25T18:14:47.586Z,5.50
2018-01-25T18:17:15.930Z,5.53
2018-01-25T18:19:43.457Z,6.70
2018-01-25T18:22:11.014Z,5.47
2018-01-25T18:24:39.302Z,4.70
2018-01-25T18:27:06.853Z,6.03
2018-01-25T18:29:34.386Z,3.83
2018-01-25T18:32:01.996Z,5.27
2018-01-25T18:34:29.518Z,4.07
2018-01-25T18:36:57.842Z,4.13
2018-01-25T18:39:25.366Z,3.30
2018-01-25T18:41:52.925Z,2.20
2018-01-25T18:44:21.221Z,2.13
2018-01-25T18:46:48.771Z,3.23
2018-01-25T18:49:16.322Z,2.97
2018-01-25T18:51:44.639Z,2.60
2018-01-25T18:54:12.166Z,2.10
2018-01-25T18:56:39.712Z,3.27
2018-01-25T18:59:08.007Z,2.33
2018-01-25T19:01:35.559Z,2.70
2018-01-25T19:04:03.865Z,2.77
2018-01-25T19:06:31.414Z,2.50
2018-01-25T19:08:58.944Z,5.93
2018-01-25T19:11:27.270Z,4.10
2018-01-25T19:13:54.958Z,4.83
2018-01-25T19:16:22.503Z,5.10
2018-01-25T19:18:50.022Z,4.70
2018-01-25T19:21:17.566Z,4.40
2018-01-25T19:23:45.879Z,4.90
2018-01-25T19:26:13.405Z,5.30
2018-01-25T19:28:41.721Z,3.73
2018-01-25T19:31:09.239Z,4.40
2018-01-25T19:33:37.598Z,3.93
2018-01-25T19:36:05.126Z,3.83
2018-01-25T19:38:32.682Z,3.80
2018-01-25T19:41:00.205Z,3.60
2018-01-25T19:43:28.522Z,3.47
2018-01-25T19:45:56.047Z,3.53
2018-01-25T19:48:23.593Z,3.93
2018-01-25T19:50:51.926Z,4.20
2018-01-25T19:53:19.491Z,3.10
2018-01-25T19:55:47.023Z,5.50
2018-01-25T19:58:14.575Z,3.80
2018-01-25T20:00:42.097Z,4.50
2018-01-25T20:03:09.645Z,3.50
2018-01-25T20:05:37.166Z,3.47
2018-01-25T20:08:04.692Z,5.50
2018-01-25T20:10:33.002Z,6.77
2018-01-25T20:13:00.522Z,7.67
2018-01-25T20:15:28.842Z,4.27
2018-01-25T20:17:56.362Z,5.90
2018-01-25T20:20:24.674Z,3.80
2018-01-25T20:22:52.197Z,5.00
2018-01-25T20:25:20.511Z,7.43
2018-01-25T20:27:48.029Z,5.30
2018-01-25T20:30:16.351Z,4.93
2018-01-25T20:32:43.870Z,4.50
2018-01-25T20:35:12.186Z,4.83
2018-01-25T20:37:39.724Z,7.00
2018-01-25T20:40:07.277Z,4.67
2018-01-25T20:42:34.814Z,3.80
2018-01-25T20:45:02.374Z,5.00
2018-01-25T20:47:29.906Z,3.50
2018-01-25T20:49:57.454Z,3.93
2018-01-25T20:52:25.002Z,5.93
2018-01-25T20:54:52.550Z,5.50
2018-01-25T20:57:20.070Z,5.90
2018-01-25T20:59:47.613Z,6.33
2018-01-25T21:02:15.141Z,5.10
2018-01-25T21:04:42.707Z,4.67
2018-01-25T21:07:10.254Z,5.07
2018-01-25T21:09:37.776Z,5.83
2018-01-25T21:12:06.106Z,6.07
2018-01-25T21:14:33.893Z,6.90
2018-01-25T21:17:02.276Z,6.37
2018-01-25T21:19:29.817Z,7.50
2018-01-25T21:21:57.373Z,10.20
2018-01-25T21:24:24.893Z,8.17
2018-01-25T21:26:52.479Z,10.77
2018-01-25T21:29:20.003Z,8.37
2018-01-25T21:31:48.398Z,13.43
2018-01-25T21:34:15.930Z,15.17
2018-01-25T21:36:43.481Z,11.30
2018-01-25T21:39:11.035Z,21.30
2018-01-25T21:41:38.607Z,23.20
2018-01-25T21:44:06.165Z,24.40
2018-01-25T21:46:33.727Z,23.07
2018-01-25T21:49:01.252Z,26.43
2018-01-25T21:51:29.571Z,24.70
2018-01-25T21:53:57.865Z,22.60
2018-01-25T21:56:26.315Z,27.97
2018-01-25T21:58:53.854Z,22.97
2018-01-25T22:01:21.405Z,25.07
2018-01-25T22:03:48.939Z,26.13
2018-01-25T22:06:16.497Z,19.30
2018-01-25T22:08:44.174Z,23.07
2018-01-25T22:11:11.725Z,13.70
2018-01-25T22:13:39.258Z,14.80
2018-01-25T22:16:07.569Z,18.33
2018-01-25T22:18:35.101Z,14.37
2018-01-25T22:21:03.425Z,15.47
2018-01-25T22:23:30.949Z,15.30
2018-01-25T22:25:58.502Z,12.00
2018-01-25T22:28:26.298Z,14.30
2018-01-25T22:30:53.813Z,16.33
2018-01-25T22:33:22.360Z,24.23
2018-01-25T22:35:50.690Z,17.80
2018-01-25T22:38:18.246Z,22.10
2018-01-25T22:40:45.925Z,15.03
2018-01-25T22:43:13.481Z,14.20
2018-01-25T22:45:41.006Z,19.07
2018-01-25T22:48:09.344Z,12.47
2018-01-25T22:50:37.025Z,12.87
2018-01-25T22:53:04.574Z,15.23
2018-01-25T22:55:32.113Z,16.83
2018-01-25T22:57:59.659Z,14.60
2018-01-25T23:00:39.194Z,12.70
2018-01-25T23:03:06.745Z,15.77
2018-01-25T23:05:35.034Z,17.37
2018-01-25T23:08:02.626Z,14.97
2018-01-25T23:10:30.159Z,16.13
2018-01-25T23:12:57.851Z,15.37
2018-01-25T23:15:25.418Z,17.67
2018-01-25T23:17:52.969Z,15.47
2018-01-25T23:20:20.513Z,17.27
2018-01-25T23:22:48.066Z,13.60
2018-01-25T23:25:15.735Z,14.80
2018-01-25T23:27:43.286Z,16.37
2018-01-25T23:30:10.813Z,17.30
2018-01-25T23:32:39.132Z,16.83
2018-01-25T23:35:06.662Z,18.27
2018-01-25T23:37:34.993Z,16.33
2018-01-25T23:40:02.515Z,15.50
2018-01-25T23:42:30.187Z,14.27
2018-01-25T23:44:57.734Z,13.43
2018-01-25T23:47:25.257Z,14.43
2018-01-25T23:49:52.825Z,12.40
2018-01-25T23:52:21.125Z,9.90
2018-01-25T23:54:48.736Z,12.97
2018-01-25T23:57:17.061Z,13.47
2018-01-25T23:59:45.382Z,11.40
